createdAt,value
2022-12-28T00:02:13.636Z,0.75
2022-12-28T00:04:40.169Z,0.75
2022-12-28T00:07:06.610Z,0.80
2022-12-28T00:09:33.045Z,0.79
2022-12-28T00:11:59.491Z,0.85
2022-12-28T00:14:25.938Z,2.35
2022-12-28T00:16:52.970Z,1.14
2022-12-28T00:19:19.594Z,1.00
2022-12-28T00:21:47.167Z,1.00
2022-12-28T00:24:14.783Z,0.94
2022-12-28T00:26:41.353Z,0.89
2022-12-28T00:29:08.938Z,0.89
2022-12-28T00:31:36.571Z,0.83
2022-12-28T00:34:04.216Z,0.91
2022-12-28T00:37:08.924Z,0.91
2022-12-28T00:39:19.393Z,0.73
2022-12-28T00:41:46.984Z,0.81
2022-12-28T00:44:14.584Z,0.73
2022-12-28T00:46:42.164Z,0.94
2022-12-28T00:49:08.756Z,0.70
2022-12-28T00:51:35.351Z,0.57
2022-12-28T00:54:01.931Z,0.60
2022-12-28T00:56:28.536Z,0.69
2022-12-28T00:58:56.126Z,0.64
2022-12-28T01:01:22.636Z,0.61
2022-12-28T01:03:49.336Z,0.68
2022-12-28T01:06:15.935Z,0.69
2022-12-28T01:08:42.522Z,0.70
2022-12-28T01:11:09.119Z,0.68
2022-12-28T01:13:35.703Z,0.51
2022-12-28T01:16:02.376Z,0.74
2022-12-28T01:18:29.915Z,0.59
2022-12-28T01:20:57.479Z,0.60
2022-12-28T01:23:24.071Z,0.53
2022-12-28T01:25:50.665Z,0.57
2022-12-28T01:28:17.246Z,0.65
2022-12-28T01:30:44.842Z,0.55
2022-12-28T01:33:11.424Z,0.63
2022-12-28T01:35:38.041Z,0.67
2022-12-28T01:38:04.628Z,0.52
2022-12-28T01:40:31.238Z,0.63
2022-12-28T01:42:58.278Z,0.57
2022-12-28T01:45:26.408Z,0.60
2022-12-28T01:47:53.024Z,0.53
2022-12-28T01:50:20.608Z,0.74
2022-12-28T01:52:48.199Z,0.64
2022-12-28T01:55:14.799Z,0.52
2022-12-28T01:57:41.381Z,0.67
2022-12-28T02:00:08.024Z,0.70
2022-12-28T02:02:35.773Z,0.83
2022-12-28T02:05:03.198Z,0.79
2022-12-28T02:07:29.795Z,0.75
2022-12-28T02:10:41.064Z,0.71
2022-12-28T02:12:43.101Z,1.06
2022-12-28T02:15:10.667Z,0.78
2022-12-28T02:17:37.072Z,1.01
2022-12-28T02:20:03.480Z,0.79
2022-12-28T02:22:29.919Z,0.87
2022-12-28T02:25:12.020Z,0.77
2022-12-28T02:27:39.709Z,0.72
2022-12-28T02:30:06.133Z,0.78
2022-12-28T02:32:32.866Z,0.67
2022-12-28T02:34:59.464Z,0.87
2022-12-28T02:37:25.929Z,0.74
2022-12-28T02:39:53.657Z,0.83
2022-12-28T02:42:21.232Z,0.74
2022-12-28T02:44:47.825Z,0.81
2022-12-28T02:47:14.425Z,0.87
2022-12-28T02:49:43.048Z,0.82
2022-12-28T02:52:09.656Z,0.91
2022-12-28T02:54:36.242Z,0.87
2022-12-28T02:57:03.174Z,0.94
2022-12-28T02:59:29.581Z,0.94
2022-12-28T03:01:56.141Z,0.91
2022-12-28T03:04:23.657Z,0.85
2022-12-28T03:06:51.259Z,0.84
2022-12-28T03:09:18.840Z,1.04
2022-12-28T03:11:45.432Z,1.03
2022-12-28T03:14:12.033Z,0.87
2022-12-28T03:16:39.624Z,0.85
2022-12-28T03:19:06.212Z,0.99
2022-12-28T03:21:32.811Z,1.13
2022-12-28T03:23:59.422Z,1.01
2022-12-28T03:26:27.002Z,0.90
2022-12-28T03:28:53.595Z,1.11
2022-12-28T03:31:21.233Z,1.11
2022-12-28T03:33:48.758Z,1.14
2022-12-28T03:36:15.694Z,1.03
2022-12-28T03:38:42.183Z,1.16
2022-12-28T03:41:09.525Z,1.24
2022-12-28T03:43:36.130Z,1.43
2022-12-28T03:46:03.758Z,1.86
2022-12-28T03:48:31.335Z,1.85
2022-12-28T03:50:57.941Z,2.33
2022-12-28T03:53:24.566Z,2.49
2022-12-28T03:55:51.156Z,2.65
2022-12-28T03:58:18.748Z,2.90
2022-12-28T04:00:46.321Z,2.96
2022-12-28T04:03:13.008Z,2.84
2022-12-28T04:05:40.507Z,2.80
2022-12-28T04:08:06.937Z,3.06
2022-12-28T04:10:33.703Z,3.16
2022-12-28T04:13:01.308Z,3.10
2022-12-28T04:15:28.897Z,3.27
2022-12-28T04:17:55.331Z,3.27
2022-12-28T04:20:22.106Z,3.42
2022-12-28T04:22:49.697Z,3.21
2022-12-28T04:25:17.267Z,3.08
2022-12-28T04:27:43.905Z,3.09
2022-12-28T04:30:10.503Z,2.08
2022-12-28T04:32:37.096Z,1.69
2022-12-28T04:35:03.713Z,1.51
2022-12-28T04:37:31.275Z,1.83
2022-12-28T04:39:57.891Z,2.33
2022-12-28T04:42:24.443Z,2.30
2022-12-28T04:44:51.113Z,2.07
2022-12-28T04:47:18.656Z,2.34
2022-12-28T04:49:45.247Z,2.67
2022-12-28T04:52:11.657Z,2.32
2022-12-28T04:54:38.130Z,1.62
2022-12-28T04:57:04.604Z,1.49
2022-12-28T04:59:31.054Z,1.34
2022-12-28T05:01:57.602Z,1.04
2022-12-28T05:04:24.802Z,1.01
2022-12-28T05:06:52.392Z,1.04
2022-12-28T05:09:19.001Z,1.01
2022-12-28T05:11:45.464Z,0.93
2022-12-28T05:14:11.896Z,1.23
2022-12-28T05:16:38.370Z,1.09
2022-12-28T05:19:04.844Z,1.05
2022-12-28T05:21:31.323Z,1.17
2022-12-28T05:23:58.535Z,1.00
2022-12-28T05:26:26.114Z,1.19
2022-12-28T05:28:52.514Z,1.16
2022-12-28T05:31:19.341Z,1.01
2022-12-28T05:33:46.884Z,1.26
2022-12-28T05:36:15.479Z,1.21
2022-12-28T05:38:42.081Z,1.07
2022-12-28T05:41:09.766Z,1.38
2022-12-28T05:43:37.279Z,1.20
2022-12-28T05:46:03.836Z,1.21
2022-12-28T05:48:30.424Z,1.06
2022-12-28T05:50:58.025Z,1.21
2022-12-28T05:53:24.616Z,1.40
2022-12-28T05:55:51.050Z,2.35
2022-12-28T05:58:17.805Z,3.78
2022-12-28T06:00:45.387Z,3.98
2022-12-28T06:03:12.016Z,4.08
2022-12-28T06:05:38.497Z,4.05
2022-12-28T06:08:05.131Z,3.73
2022-12-28T06:10:31.729Z,3.05
2022-12-28T06:12:59.357Z,2.19
2022-12-28T06:15:25.802Z,1.53
2022-12-28T06:17:52.479Z,1.19
2022-12-28T06:20:19.098Z,1.13
2022-12-28T06:22:46.691Z,1.15
2022-12-28T06:25:14.274Z,1.16
2022-12-28T06:27:40.756Z,1.13
2022-12-28T06:30:08.463Z,1.37
2022-12-28T06:32:36.076Z,1.25
2022-12-28T06:35:03.695Z,1.70
2022-12-28T06:37:30.256Z,1.46
2022-12-28T06:39:56.857Z,1.97
2022-12-28T06:42:23.460Z,8.10
2022-12-28T06:44:50.044Z,1.78
2022-12-28T06:47:16.526Z,1.85
2022-12-28T06:49:42.965Z,1.29
2022-12-28T06:52:09.419Z,1.22
2022-12-28T06:54:35.858Z,1.30
2022-12-28T06:57:02.311Z,1.30
2022-12-28T06:59:29.596Z,1.29
2022-12-28T07:01:56.198Z,1.26
2022-12-28T07:04:22.694Z,1.18
2022-12-28T07:06:49.156Z,1.17
2022-12-28T07:09:15.608Z,1.37
2022-12-28T07:11:42.124Z,2.21
2022-12-28T07:14:09.146Z,3.48
2022-12-28T07:19:01.412Z,3.00
2022-12-28T07:21:28.900Z,2.74
2022-12-28T07:23:55.349Z,3.05
2022-12-28T07:26:22.098Z,2.71
2022-12-28T07:28:49.715Z,2.09
2022-12-28T07:31:16.272Z,1.56
2022-12-28T07:33:42.806Z,1.82
2022-12-28T07:36:09.521Z,1.47
2022-12-28T07:38:36.102Z,2.54
2022-12-28T07:41:02.588Z,1.94
2022-12-28T07:43:29.268Z,1.75
2022-12-28T07:45:56.922Z,2.08
2022-12-28T07:48:24.501Z,2.20
2022-12-28T07:50:51.108Z,2.17
2022-12-28T07:53:22.024Z,2.01
2022-12-28T07:55:49.419Z,2.06
2022-12-28T07:58:16.004Z,2.40
2022-12-28T08:00:42.595Z,2.69
2022-12-28T08:03:10.251Z,2.83
2022-12-28T08:05:37.812Z,2.89
2022-12-28T08:08:05.416Z,2.45
2022-12-28T08:10:31.998Z,2.04
2022-12-28T08:12:58.610Z,1.77
2022-12-28T08:15:25.205Z,1.77
2022-12-28T08:17:51.791Z,2.03
2022-12-28T08:20:19.372Z,2.95
2022-12-28T08:22:45.978Z,3.36
2022-12-28T08:25:13.556Z,3.16
2022-12-28T08:27:40.182Z,2.84
2022-12-28T08:30:06.755Z,3.59
2022-12-28T08:32:34.388Z,2.34
2022-12-28T08:35:02.011Z,2.29
2022-12-28T08:37:28.487Z,2.47
2022-12-28T08:39:54.967Z,4.39
2022-12-28T08:42:21.622Z,6.16
2022-12-28T08:44:48.397Z,2.65
2022-12-28T08:47:14.989Z,2.48
2022-12-28T08:49:41.597Z,2.60
2022-12-28T08:52:08.591Z,2.83
2022-12-28T08:54:35.030Z,3.12
2022-12-28T08:57:01.473Z,5.16
2022-12-28T08:59:29.079Z,4.45
2022-12-28T09:01:56.764Z,3.28
2022-12-28T09:04:23.353Z,3.27
2022-12-28T09:06:49.759Z,3.73
2022-12-28T09:09:16.206Z,3.54
2022-12-28T09:11:43.903Z,3.30
2022-12-28T09:14:10.488Z,3.22
2022-12-28T09:16:37.093Z,3.38
2022-12-28T09:19:04.697Z,3.28
2022-12-28T09:21:31.234Z,3.14
2022-12-28T09:23:57.741Z,3.53
2022-12-28T09:26:24.475Z,3.72
2022-12-28T09:28:52.073Z,3.89
2022-12-28T09:31:18.978Z,4.01
2022-12-28T09:34:23.311Z,3.85
2022-12-28T09:36:32.072Z,3.48
2022-12-28T09:38:59.571Z,3.64
2022-12-28T09:41:28.130Z,3.39
2022-12-28T09:43:56.720Z,3.56
2022-12-28T09:46:24.389Z,3.36
2022-12-28T09:48:51.905Z,3.32
2022-12-28T09:51:19.516Z,3.27
2022-12-28T09:53:48.113Z,2.77
2022-12-28T09:56:15.704Z,3.21
2022-12-28T09:58:47.754Z,2.99
2022-12-28T10:01:16.049Z,3.28
2022-12-28T10:03:43.517Z,3.67
2022-12-28T10:06:11.111Z,3.57
2022-12-28T10:08:38.703Z,3.74
2022-12-28T10:11:07.328Z,3.77
2022-12-28T10:13:54.180Z,3.97
2022-12-28T10:16:22.637Z,4.35
2022-12-28T10:18:50.276Z,4.26
2022-12-28T10:21:17.762Z,4.11
2022-12-28T10:24:20.821Z,4.34
2022-12-28T10:26:33.073Z,4.31
2022-12-28T10:29:01.674Z,4.53
2022-12-28T10:31:29.247Z,4.31
2022-12-28T10:33:56.863Z,4.51
2022-12-28T10:36:31.365Z,4.55
2022-12-28T10:38:59.122Z,4.58
2022-12-28T10:41:26.675Z,4.28
2022-12-28T10:44:21.461Z,4.13
2022-12-28T10:46:40.011Z,3.90
2022-12-28T10:49:12.345Z,3.89
2022-12-28T10:51:42.214Z,4.05
2022-12-28T10:54:09.109Z,4.00
2022-12-28T10:56:36.432Z,3.82
2022-12-28T10:59:05.237Z,3.70
2022-12-28T11:01:32.639Z,3.53
2022-12-28T11:04:00.224Z,3.57
2022-12-28T11:06:28.019Z,4.21
2022-12-28T11:08:56.390Z,3.54
2022-12-28T11:11:23.987Z,3.50
2022-12-28T11:13:51.107Z,3.32
2022-12-28T11:16:18.232Z,3.72
2022-12-28T11:18:46.762Z,3.71
2022-12-28T11:21:14.383Z,3.44
2022-12-28T11:23:41.966Z,3.23
2022-12-28T11:26:09.581Z,2.43
2022-12-28T11:28:37.158Z,2.34
2022-12-28T11:31:04.769Z,2.02
2022-12-28T11:33:32.358Z,2.74
2022-12-28T11:36:02.513Z,2.88
2022-12-28T11:38:32.559Z,2.41
2022-12-28T11:41:13.370Z,2.33
2022-12-28T11:43:40.799Z,2.39
2022-12-28T11:46:08.419Z,2.58
2022-12-28T11:48:37.300Z,2.48
2022-12-28T11:51:04.598Z,2.85
2022-12-28T11:53:32.203Z,2.55
2022-12-28T11:55:59.782Z,2.73
2022-12-28T11:58:26.716Z,2.11
2022-12-28T12:00:54.955Z,2.21
2022-12-28T12:03:22.641Z,2.34
2022-12-28T12:05:50.148Z,2.55
2022-12-28T12:08:16.966Z,2.09
2022-12-28T12:10:46.239Z,1.91
2022-12-28T12:13:14.305Z,1.75
2022-12-28T12:15:41.536Z,1.69
2022-12-28T12:18:08.131Z,1.82
2022-12-28T12:20:35.708Z,1.68
2022-12-28T12:23:02.128Z,1.65
2022-12-28T12:25:29.036Z,1.54
2022-12-28T12:27:55.626Z,1.49
2022-12-28T12:30:23.230Z,1.75
2022-12-28T12:32:50.839Z,1.39
2022-12-28T12:35:17.467Z,1.67
2022-12-28T12:37:44.138Z,1.52
2022-12-28T12:40:11.697Z,1.48
2022-12-28T12:42:39.281Z,1.54
2022-12-28T12:45:05.746Z,1.38
2022-12-28T12:47:32.447Z,1.38
2022-12-28T12:49:59.067Z,1.42
2022-12-28T12:52:25.502Z,1.37
2022-12-28T12:54:52.246Z,1.31
2022-12-28T12:57:19.825Z,1.29
2022-12-28T12:59:47.412Z,1.33
2022-12-28T13:02:14.028Z,1.29
2022-12-28T13:04:41.607Z,1.34
2022-12-28T13:07:09.195Z,1.32
2022-12-28T13:09:35.621Z,1.23
2022-12-28T13:12:02.366Z,1.32
2022-12-28T13:14:28.879Z,1.20
2022-12-28T13:16:55.342Z,1.31
2022-12-28T13:19:21.789Z,1.46
2022-12-28T13:21:48.722Z,1.31
2022-12-28T13:24:15.310Z,1.34
2022-12-28T13:26:43.147Z,1.35
2022-12-28T13:29:09.733Z,1.27
2022-12-28T13:31:36.354Z,1.21
2022-12-28T13:34:02.766Z,1.18
2022-12-28T13:36:29.534Z,1.18
2022-12-28T13:38:56.104Z,1.35
2022-12-28T13:41:22.706Z,1.27
2022-12-28T13:43:50.290Z,1.38
2022-12-28T13:46:16.771Z,1.17
2022-12-28T13:48:43.233Z,1.61
2022-12-28T13:51:09.683Z,1.37
2022-12-28T13:53:36.695Z,1.23
2022-12-28T13:56:04.276Z,1.46
2022-12-28T13:58:31.864Z,1.27
2022-12-28T14:00:58.386Z,1.18
2022-12-28T14:03:25.046Z,1.24
2022-12-28T14:05:51.595Z,1.25
2022-12-28T14:08:18.228Z,1.29
2022-12-28T14:10:44.822Z,1.18
2022-12-28T14:13:12.409Z,1.25
2022-12-28T14:15:41.349Z,1.13
2022-12-28T14:18:08.071Z,1.24
2022-12-28T14:20:34.559Z,1.19
2022-12-28T14:23:01.036Z,1.31
2022-12-28T14:25:28.381Z,1.19
2022-12-28T14:27:57.384Z,1.27
2022-12-28T14:30:24.594Z,0.94
2022-12-28T14:32:52.188Z,1.12
2022-12-28T14:35:18.749Z,1.00
2022-12-28T14:37:45.357Z,1.08
2022-12-28T14:40:12.944Z,1.10
2022-12-28T14:42:40.544Z,0.97
2022-12-28T14:45:08.145Z,1.07
2022-12-28T14:47:36.753Z,1.14
2022-12-28T14:50:04.355Z,1.16
2022-12-28T14:52:32.981Z,1.08
2022-12-28T14:55:00.537Z,1.18
2022-12-28T14:57:28.123Z,1.08
2022-12-28T14:59:55.721Z,1.02
2022-12-28T15:02:23.412Z,1.12
2022-12-28T15:04:53.579Z,0.99
2022-12-28T15:07:24.533Z,0.98
2022-12-28T15:09:52.214Z,1.00
2022-12-28T15:12:19.708Z,0.77
2022-12-28T15:14:46.198Z,0.86
2022-12-28T15:17:12.675Z,0.96
2022-12-28T15:19:39.518Z,0.85
2022-12-28T15:22:06.124Z,0.92
2022-12-28T15:24:34.494Z,0.84
2022-12-28T15:27:01.093Z,0.78
2022-12-28T15:29:55.581Z,0.83
2022-12-28T15:32:13.961Z,1.01
2022-12-28T15:34:40.344Z,0.79
2022-12-28T15:37:06.766Z,0.92
2022-12-28T15:39:33.160Z,0.85
2022-12-28T15:41:59.565Z,0.95
2022-12-28T15:44:26.009Z,0.98
2022-12-28T15:46:52.437Z,0.72
2022-12-28T15:49:18.951Z,1.01
2022-12-28T15:51:45.400Z,1.13
2022-12-28T15:54:11.856Z,0.77
2022-12-28T15:56:38.285Z,0.81
2022-12-28T15:59:04.756Z,0.94
2022-12-28T16:01:31.273Z,0.82
2022-12-28T16:03:57.825Z,0.87
2022-12-28T16:06:24.300Z,1.00
2022-12-28T16:08:50.829Z,1.12
2022-12-28T16:11:17.406Z,0.99
2022-12-28T16:13:43.816Z,0.79
2022-12-28T16:16:10.390Z,0.96
2022-12-28T16:18:36.881Z,1.03
2022-12-28T16:21:03.332Z,1.27
2022-12-28T16:23:29.778Z,1.11
2022-12-28T16:25:56.196Z,0.97
2022-12-28T16:28:22.730Z,1.14
2022-12-28T16:30:49.647Z,1.27
2022-12-28T16:33:16.149Z,1.09
2022-12-28T16:35:42.892Z,2.19
2022-12-28T16:38:09.384Z,1.92
2022-12-28T16:40:35.840Z,1.39
2022-12-28T16:43:02.326Z,1.47
2022-12-28T16:45:29.847Z,2.85
2022-12-28T16:47:56.373Z,1.05
2022-12-28T16:50:22.830Z,1.14
2022-12-28T16:52:49.247Z,1.86
2022-12-28T16:55:15.693Z,1.72
2022-12-28T16:57:43.925Z,1.52
2022-12-28T17:00:10.381Z,1.63
2022-12-28T17:02:37.033Z,2.00
2022-12-28T17:05:03.593Z,1.90
2022-12-28T17:07:30.061Z,2.29
2022-12-28T17:09:56.501Z,2.21
2022-12-28T17:12:22.957Z,2.31
2022-12-28T17:14:49.390Z,2.17
2022-12-28T17:17:17.882Z,1.82
2022-12-28T17:19:44.355Z,2.02
2022-12-28T17:22:10.867Z,2.08
2022-12-28T17:24:37.360Z,2.08
2022-12-28T17:27:08.503Z,2.23
2022-12-28T17:29:37.903Z,2.48
2022-12-28T17:32:04.656Z,2.46
2022-12-28T17:34:31.145Z,2.42
2022-12-28T17:36:57.551Z,1.74
2022-12-28T17:39:24.024Z,1.41
2022-12-28T17:41:50.494Z,1.33
2022-12-28T17:44:18.111Z,1.33
2022-12-28T17:46:44.602Z,1.10
2022-12-28T17:49:11.170Z,1.05
2022-12-28T17:51:37.685Z,1.35
2022-12-28T17:54:04.147Z,1.21
2022-12-28T17:56:32.664Z,1.35
2022-12-28T17:58:59.266Z,1.19
2022-12-28T18:01:26.012Z,1.46
2022-12-28T18:03:53.523Z,1.40
2022-12-28T18:06:22.626Z,1.65
2022-12-28T18:08:49.197Z,1.55
2022-12-28T18:11:15.698Z,1.41
2022-12-28T18:13:42.111Z,1.36
2022-12-28T18:16:09.639Z,1.36
2022-12-28T18:18:36.080Z,1.33
2022-12-28T18:21:02.808Z,1.52
2022-12-28T18:23:29.420Z,1.47
2022-12-28T18:25:57.022Z,1.73
2022-12-28T18:28:24.600Z,1.34
2022-12-28T18:30:57.899Z,1.37
2022-12-28T18:33:30.270Z,1.32
2022-12-28T18:35:57.495Z,1.40
2022-12-28T18:38:25.096Z,1.47
2022-12-28T18:40:51.680Z,1.24
2022-12-28T18:43:18.317Z,1.60
2022-12-28T18:45:45.856Z,1.48
2022-12-28T18:48:13.524Z,1.51
2022-12-28T18:50:40.264Z,1.61
2022-12-28T18:53:07.804Z,1.60
2022-12-28T18:55:35.420Z,1.43
2022-12-28T18:58:01.900Z,1.44
2022-12-28T19:00:28.379Z,1.45
2022-12-28T19:02:54.939Z,1.15
2022-12-28T19:05:21.894Z,1.23
2022-12-28T19:07:49.594Z,1.28
2022-12-28T19:10:16.662Z,1.13
2022-12-28T19:12:43.590Z,1.22
2022-12-28T19:15:11.367Z,1.21
2022-12-28T19:17:38.942Z,1.32
2022-12-28T19:20:06.620Z,0.94
2022-12-28T19:22:33.291Z,0.99
2022-12-28T19:24:59.905Z,0.85
2022-12-28T19:27:26.697Z,0.79
2022-12-28T19:29:53.131Z,0.81
2022-12-28T19:32:19.589Z,1.03
2022-12-28T19:34:46.550Z,1.05
2022-12-28T19:37:14.083Z,1.10
2022-12-28T19:39:41.663Z,1.05
2022-12-28T19:42:09.323Z,0.81
2022-12-28T19:44:35.798Z,0.97
2022-12-28T19:47:02.228Z,0.96
2022-12-28T19:49:29.103Z,1.31
2022-12-28T19:51:56.827Z,1.03
2022-12-28T19:54:23.449Z,0.91
2022-12-28T19:56:50.041Z,0.98
2022-12-28T19:59:16.534Z,0.94
2022-12-28T20:01:43.089Z,1.01
2022-12-28T20:04:14.080Z,0.98
2022-12-28T20:06:40.998Z,0.98
2022-12-28T20:09:07.463Z,1.01
2022-12-28T20:11:33.891Z,0.86
2022-12-28T20:17:03.699Z,1.00
2022-12-28T20:19:33.807Z,0.95
2022-12-28T20:27:59.368Z,1.05
2022-12-28T20:33:14.227Z,1.00
2022-12-28T20:36:12.370Z,1.16
2022-12-28T20:41:21.963Z,1.31
2022-12-28T20:46:47.380Z,1.30
2022-12-28T20:49:17.865Z,1.15
2022-12-28T20:51:59.491Z,1.27
2022-12-28T20:57:45.988Z,1.42
2022-12-28T21:00:03.949Z,1.32
2022-12-28T21:02:32.955Z,1.37
2022-12-28T21:06:18.639Z,1.43
2022-12-28T21:07:50.560Z,1.43
2022-12-28T21:10:21.895Z,1.56
2022-12-28T21:15:37.650Z,1.59
2022-12-28T21:18:04.446Z,1.71
2022-12-28T21:20:38.637Z,1.69
2022-12-28T21:23:06.643Z,1.83
2022-12-28T21:25:35.618Z,1.80
2022-12-28T21:28:02.846Z,1.84
2022-12-28T21:30:31.737Z,1.86
2022-12-28T21:35:42.881Z,1.86
2022-12-28T21:44:08.225Z,1.88
2022-12-28T21:49:18.606Z,1.92
2022-12-28T21:54:31.565Z,1.75
2022-12-28T22:23:17.977Z,1.76
2022-12-28T22:39:03.431Z,1.75
2022-12-28T22:44:20.331Z,1.67
2022-12-28T22:49:33.479Z,1.65
2022-12-28T22:52:05.154Z,1.94
2022-12-28T23:00:16.384Z,1.77
2022-12-28T23:03:46.319Z,1.72
2022-12-28T23:08:25.885Z,1.69
2022-12-28T23:11:25.729Z,1.83
2022-12-28T23:27:43.359Z,1.82
2022-12-28T23:58:15.005Z,2.01
